Time;durP1;ratioP1;P1;durP2;ratioP2;P2;SDS_P1;SDS_P2;PMS_P1;PMS_P2;Temp;Humidity;BMP_temperature;BMP_pressure;BME280_temperature;BME280_humidity;BME280_pressure;Samples;Min_cycle;Max_cycle;Signal;HPM_P1;HPM_P2
2021/12/25 00:00:37;;;;;;;11.90;8.70;;;4.00;99.90;;;4.66;100.00;99497.22;5056067;28;20033;-81
2021/12/25 00:03:03;;;;;;;11.88;9.10;;;3.90;99.90;;;4.50;100.00;99488.81;5055975;28;20106;-81
2021/12/25 00:05:30;;;;;;;12.40;9.02;;;3.90;99.90;;;4.46;100.00;99492.63;5055196;28;20391;-81
2021/12/25 00:07:56;;;;;;;13.98;9.98;;;3.80;99.90;;;4.43;100.00;99490.56;5055880;28;20033;-80
2021/12/25 00:10:22;;;;;;;14.25;8.63;;;3.80;99.90;;;4.37;100.00;99491.91;5056718;28;20534;-81
2021/12/25 00:12:49;;;;;;;12.23;9.13;;;3.80;99.90;;;4.30;100.00;99491.69;5057012;28;20044;-81
2021/12/25 00:15:22;;;;;;;14.00;9.52;;;3.70;99.90;;;4.29;100.00;99482.59;5055765;28;20035;-81
2021/12/25 00:18:00;;;;;;;13.57;9.43;;;3.70;99.90;;;4.35;100.00;99489.50;5056947;28;20467;-82
2021/12/25 00:20:26;;;;;;;13.57;9.35;;;3.60;99.90;;;4.33;100.00;99478.00;5055519;28;20040;-80
2021/12/25 00:22:52;;;;;;;12.55;9.13;;;3.60;99.90;;;4.33;100.00;99480.75;5056878;28;20025;-80
2021/12/25 00:25:20;;;;;;;13.30;9.10;;;3.60;99.90;;;4.28;100.00;99496.75;5056110;28;20087;-80
2021/12/25 00:28:06;;;;;;;13.15;9.60;;;3.60;99.90;;;4.24;100.00;99499.38;5056355;28;20036;-82
2021/12/25 00:30:42;;;;;;;13.10;9.13;;;3.50;99.90;;;4.09;100.00;99502.84;5055400;28;20033;-81
2021/12/25 00:33:33;;;;;;;12.52;9.13;;;3.40;99.90;;;3.99;100.00;99503.28;5055806;28;20090;-80
2021/12/25 00:36:04;;;;;;;14.88;10.88;;;3.40;99.90;;;4.00;100.00;99504.88;5057315;28;20092;-79
2021/12/25 00:38:31;;;;;;;15.98;11.20;;;3.40;99.90;;;4.13;100.00;99509.28;5058763;28;20033;-81
2021/12/25 00:41:00;;;;;;;13.00;9.80;;;3.40;99.90;;;4.11;100.00;99515.16;5059665;28;20025;-82
2021/12/25 00:43:26;;;;;;;13.88;9.98;;;3.40;99.90;;;4.09;100.00;99503.66;5061617;28;20025;-82
2021/12/25 00:45:55;;;;;;;15.90;11.23;;;3.40;99.90;;;4.05;100.00;99511.00;5059549;28;20056;-81
2021/12/25 00:48:21;;;;;;;14.00;10.02;;;3.40;99.90;;;3.96;100.00;99502.00;5061459;28;20040;-81
2021/12/25 00:50:49;;;;;;;13.27;10.27;;;3.40;99.90;;;3.95;100.00;99514.19;5062234;28;20056;-79
2021/12/25 00:53:15;;;;;;;16.40;10.73;;;3.30;99.90;;;4.00;100.00;99516.75;5062746;28;20036;-79
2021/12/25 00:55:41;;;;;;;15.75;11.02;;;3.30;99.90;;;3.93;100.00;99518.44;5062353;28;20100;-79
2021/12/25 00:58:07;;;;;;;15.68;10.82;;;3.30;99.90;;;3.93;100.00;99515.69;5060527;28;20036;-81
2021/12/25 01:00:33;;;;;;;13.65;9.88;;;3.20;99.90;;;3.87;100.00;99523.41;5061302;28;20033;-80
2021/12/25 01:03:03;;;;;;;16.40;11.35;;;3.20;99.90;;;3.93;100.00;99522.03;5062219;28;20029;-82
2021/12/25 01:05:29;;;;;;;17.35;12.15;;;3.20;99.90;;;3.86;100.00;99513.47;5060935;28;20106;-80
2021/12/25 01:07:55;;;;;;;15.27;11.15;;;3.20;99.90;;;3.85;100.00;99516.59;5061779;28;20032;-82
2021/12/25 01:10:25;;;;;;;16.50;11.50;;;3.20;99.90;;;3.69;100.00;99522.75;5060605;28;20029;-81
2021/12/25 01:15:49;;;;;;;17.27;12.25;;;3.10;99.90;;;3.72;100.00;99499.19;5062083;28;20119;-80
2021/12/25 01:29:28;;;;;;;20.48;13.75;;;2.90;99.90;;;3.51;100.00;99520.50;5057832;28;20136;-78
2021/12/25 01:37:14;;;;;;;17.65;12.52;;;2.80;99.90;;;3.52;100.00;99527.63;5055796;28;20063;-80
2021/12/25 01:39:49;;;;;;;18.13;12.45;;;2.80;99.90;;;3.51;100.00;99526.00;5053555;28;20029;-81
2021/12/25 01:47:48;;;;;;;17.83;13.05;;;2.80;99.90;;;3.40;100.00;99519.31;5055227;28;20039;-81
2021/12/25 01:50:26;;;;;;;17.60;12.38;;;2.80;99.90;;;3.40;100.00;99513.78;5054653;28;20036;-81
2021/12/25 01:55:30;;;;;;;16.67;13.00;;;2.70;99.90;;;3.41;100.00;99526.41;5075583;28;20045;-77
2021/12/25 01:58:00;;;;;;;20.10;14.00;;;2.70;99.90;;;3.33;100.00;99519.03;5074691;28;20028;-77
2021/12/25 02:00:48;;;;;;;20.33;14.35;;;2.70;99.90;;;3.17;100.00;99527.13;5073310;28;20511;-77
2021/12/25 02:03:20;;;;;;;19.77;13.73;;;2.70;99.90;;;3.27;100.00;99521.19;5073311;28;20033;-77
2021/12/25 02:05:46;;;;;;;22.35;14.95;;;2.70;99.90;;;3.13;100.00;99515.13;5074251;28;20020;-76
2021/12/25 02:08:16;;;;;;;20.45;15.40;;;2.60;99.90;;;3.24;100.00;99523.81;5072337;28;20355;-76
2021/12/25 02:10:42;;;;;;;20.27;14.60;;;2.60;99.90;;;3.06;100.00;99523.94;5073378;28;20028;-79
2021/12/25 02:13:11;;;;;;;19.38;14.30;;;2.60;99.90;;;3.09;100.00;99525.22;5090528;28;20627;-78
2021/12/25 02:15:44;;;;;;;23.27;14.60;;;2.60;99.90;;;3.04;100.00;99528.19;5073761;28;20560;-76
2021/12/25 02:18:30;;;;;;;20.98;14.55;;;2.50;99.90;;;3.08;100.00;99538.19;5099510;28;20088;-76
2021/12/25 02:21:20;;;;;;;21.30;14.38;;;2.50;99.90;;;2.94;100.00;99529.38;5077358;28;20028;-77
2021/12/25 02:23:49;;;;;;;19.73;13.55;;;2.50;99.90;;;2.99;100.00;99509.06;5093561;28;20028;-76
2021/12/25 02:26:24;;;;;;;19.70;14.43;;;2.50;99.90;;;2.97;100.00;99520.44;5078956;28;20108;-76
2021/12/25 02:28:51;;;;;;;21.88;14.88;;;2.40;99.90;;;3.03;100.00;99515.53;5073817;28;20052;-78
2021/12/25 02:31:19;;;;;;;19.90;13.50;;;2.50;99.90;;;2.99;100.00;99515.38;5071670;28;20082;-77
2021/12/25 02:33:48;;;;;;;19.23;13.82;;;2.50;99.90;;;2.99;100.00;99526.41;5080044;28;20031;-77
2021/12/25 02:36:17;;;;;;;22.60;14.40;;;2.40;99.90;;;2.95;100.00;99527.44;5093864;28;20066;-78
2021/12/25 02:38:45;;;;;;;20.80;13.45;;;2.40;99.90;;;2.88;100.00;99519.69;5094104;28;20111;-76
2021/12/25 02:41:12;;;;;;;19.17;13.18;;;2.40;99.90;;;3.04;100.00;99531.75;5093153;28;20040;-76
2021/12/25 02:43:42;;;;;;;18.40;13.18;;;2.40;99.90;;;2.95;100.00;99530.19;5092872;28;20039;-79
2021/12/25 02:46:08;;;;;;;18.15;13.02;;;2.40;99.90;;;2.96;100.00;99542.81;5093542;28;20078;-76
2021/12/25 02:48:40;;;;;;;19.67;13.20;;;2.40;99.90;;;2.96;100.00;99540.88;5093234;28;20129;-77
2021/12/25 02:51:07;;;;;;;17.23;12.52;;;2.40;99.90;;;2.93;100.00;99529.69;5085589;28;20025;-76
2021/12/25 02:53:35;;;;;;;20.10;14.05;;;2.40;99.90;;;2.99;100.00;99531.13;5073635;28;20044;-76
2021/12/25 02:56:01;;;;;;;20.67;13.10;;;2.40;99.90;;;2.90;100.00;99524.84;5074332;28;20032;-76
2021/12/25 02:58:30;;;;;;;22.05;14.32;;;2.40;99.90;;;2.96;100.00;99520.75;5070885;28;20139;-76
2021/12/25 03:01:19;;;;;;;21.45;13.43;;;2.40;99.90;;;2.96;100.00;99518.00;5072423;28;20475;-78
2021/12/25 03:03:49;;;;;;;21.35;14.02;;;2.30;99.90;;;2.97;100.00;99519.63;5072079;28;20112;-78
2021/12/25 03:06:18;;;;;;;20.50;12.95;;;2.30;99.90;;;2.89;100.00;99526.03;5074966;28;20025;-77
2021/12/25 03:08:45;;;;;;;20.48;13.10;;;2.30;99.90;;;2.85;100.00;99520.38;5075077;28;20031;-76
2021/12/25 03:11:14;;;;;;;20.02;12.95;;;2.30;99.90;;;2.80;100.00;99523.28;5075496;28;20082;-77
2021/12/25 03:13:56;;;;;;;18.10;11.85;;;2.30;99.90;;;2.69;100.00;99518.50;5075673;28;20032;-77
2021/12/25 03:16:23;;;;;;;20.73;13.48;;;2.20;99.90;;;2.79;100.00;99518.13;5076401;28;20033;-75
2021/12/25 03:18:52;;;;;;;20.30;12.70;;;2.20;99.90;;;2.83;100.00;99522.63;5074186;28;20028;-77
2021/12/25 03:21:22;;;;;;;18.67;12.95;;;2.20;99.90;;;2.70;100.00;99511.88;5074514;28;20035;-76
2021/12/25 03:23:52;;;;;;;20.33;13.40;;;2.20;99.90;;;2.68;100.00;99512.19;5075565;28;20020;-79
2021/12/25 03:26:18;;;;;;;22.50;13.48;;;2.20;99.90;;;2.73;100.00;99513.97;5091606;28;20077;-75
2021/12/25 03:28:46;;;;;;;20.83;13.65;;;2.20;99.90;;;2.69;100.00;99510.25;5097200;28;20398;-77
2021/12/25 03:31:18;;;;;;;20.17;13.80;;;2.20;99.90;;;2.76;100.00;99513.28;5097284;28;20028;-76
2021/12/25 03:33:55;;;;;;;21.05;13.40;;;2.20;99.90;;;2.76;100.00;99510.53;5096758;28;20063;-76
2021/12/25 03:36:22;;;;;;;20.58;13.50;;;2.20;99.90;;;2.60;100.00;99522.13;5096228;28;20032;-77
2021/12/25 03:38:49;;;;;;;23.35;13.82;;;2.10;99.90;;;2.64;100.00;99511.22;5095357;28;20028;-77
2021/12/25 03:41:18;;;;;;;21.92;14.52;;;2.10;99.90;;;2.58;100.00;99510.63;5095481;28;20074;-77
2021/12/25 03:43:53;;;;;;;19.48;12.77;;;2.10;99.90;;;2.60;100.00;99518.56;5094369;28;20020;-78
2021/12/25 03:46:19;;;;;;;14.95;9.73;;;2.10;99.90;;;2.58;100.00;99515.31;5095771;28;20024;-77
2021/12/25 03:59:41;;;;;;;15.40;10.02;;;1.90;99.90;;;2.38;100.00;99516.06;5094158;28;20778;-77
2021/12/25 04:02:16;;;;;;;19.35;12.65;;;1.90;99.90;;;2.41;100.00;99516.22;5094020;28;20074;-77
2021/12/25 04:04:46;;;;;;;18.38;11.93;;;1.90;99.90;;;2.36;100.00;99516.41;5093043;28;20020;-77
2021/12/25 04:10:01;;;;;;;19.48;12.05;;;1.90;99.90;;;2.31;100.00;99521.31;5095636;28;20027;-77
2021/12/25 04:12:27;;;;;;;17.33;11.82;;;1.80;99.90;;;2.24;100.00;99516.31;5094210;28;20076;-79
2021/12/25 04:14:56;;;;;;;20.25;11.73;;;1.80;99.90;;;2.31;100.00;99510.28;5095080;28;20078;-76
2021/12/25 04:17:21;;;;;;;15.88;10.43;;;1.80;99.90;;;2.20;100.00;99511.78;5092877;28;20039;-75
2021/12/25 04:19:53;;;;;;;19.45;11.52;;;1.70;99.90;;;2.23;100.00;99516.63;5095104;28;20032;-77
2021/12/25 04:22:32;;;;;;;16.10;10.40;;;1.70;99.90;;;2.15;100.00;99512.78;5095041;28;20090;-79
2021/12/25 04:25:01;;;;;;;15.82;10.90;;;1.70;99.90;;;2.13;100.00;99515.84;5089854;28;20088;-75
2021/12/25 04:27:27;;;;;;;17.33;11.43;;;1.70;99.90;;;2.10;100.00;99522.03;5074821;28;20032;-77
2021/12/25 04:30:19;;;;;;;16.30;11.00;;;1.60;99.90;;;2.23;100.00;99533.97;5076512;28;20344;-78
2021/12/25 04:33:17;;;;;;;13.75;9.85;;;1.60;99.90;;;2.14;100.00;99535.94;5075632;28;20549;-78
2021/12/25 05:03:23;;;;;;;13.75;9.75;;;1.30;99.90;;;1.86;100.00;99562.28;5073412;28;20103;-75
2021/12/25 05:05:49;;;;;;;15.02;9.02;;;1.40;99.90;;;1.84;100.00;99573.59;5071584;28;20032;-77
2021/12/25 05:08:14;;;;;;;13.65;10.23;;;1.30;99.90;;;1.83;100.00;99576.69;5073259;28;20059;-78
2021/12/25 05:10:40;;;;;;;15.20;9.57;;;1.30;99.90;;;1.88;100.00;99569.06;5074489;28;20029;-77
2021/12/25 05:13:06;;;;;;;12.38;8.98;;;1.30;99.90;;;1.90;100.00;99572.28;5074054;28;20468;-79
2021/12/25 05:15:32;;;;;;;11.77;8.68;;;1.30;99.90;;;1.79;100.00;99575.72;5073247;28;20074;-77
2021/12/25 05:17:58;;;;;;;13.38;8.73;;;1.30;99.90;;;1.76;100.00;99579.94;5073718;28;20052;-78
2021/12/25 05:20:24;;;;;;;13.45;8.90;;;1.30;99.90;;;1.85;100.00;99582.66;5074098;28;20025;-76
2021/12/25 05:22:53;;;;;;;15.80;8.40;;;1.30;99.90;;;1.83;100.00;99571.97;5075030;28;20016;-77
2021/12/25 05:25:19;;;;;;;10.45;8.07;;;1.30;99.90;;;1.64;100.00;99587.22;5082285;28;20035;-76
2021/12/25 05:27:46;;;;;;;10.18;8.25;;;1.30;99.90;;;1.54;100.00;99575.41;5093203;28;20028;-78
2021/12/25 05:30:13;;;;;;;12.60;9.13;;;1.20;99.90;;;1.60;100.00;99584.31;5094109;28;20455;-76
2021/12/25 05:32:41;;;;;;;11.10;8.25;;;1.20;99.90;;;1.61;100.00;99583.16;5095947;28;20024;-78
2021/12/25 05:35:08;;;;;;;12.35;9.13;;;1.20;99.90;;;1.62;100.00;99576.53;5095168;28;20040;-77
2021/12/25 05:37:34;;;;;;;10.10;8.25;;;1.10;99.90;;;1.45;100.00;99590.28;5095765;28;20020;-76
2021/12/25 05:40:01;;;;;;;12.25;8.20;;;1.10;99.90;;;1.67;100.00;99589.34;5095016;28;20453;-77
2021/12/25 05:42:27;;;;;;;14.60;8.55;;;1.10;99.90;;;1.70;100.00;99595.00;5093041;28;20024;-77
2021/12/25 05:44:53;;;;;;;14.75;9.48;;;1.10;99.90;;;1.66;100.00;99588.53;5091960;28;20028;-78
2021/12/25 05:47:19;;;;;;;10.13;8.35;;;1.20;99.90;;;1.72;100.00;99589.97;5095617;28;20046;-76
2021/12/25 05:49:45;;;;;;;12.77;7.78;;;1.10;99.90;;;1.77;100.00;99605.50;5092612;28;20028;-78
2021/12/25 05:52:11;;;;;;;11.70;8.32;;;1.10;99.90;;;1.75;100.00;99596.75;5095039;28;20032;-78
2021/12/25 05:54:37;;;;;;;11.57;8.35;;;1.10;99.90;;;1.53;100.00;99600.50;5092924;28;20086;-79
2021/12/25 05:57:03;;;;;;;12.80;8.70;;;1.10;99.90;;;1.43;100.00;99600.81;5092802;28;20409;-78
2021/12/25 05:59:32;;;;;;;12.52;8.65;;;1.10;99.90;;;1.52;100.00;99605.19;5092438;28;20032;-76
2021/12/25 06:02:01;;;;;;;14.02;8.48;;;1.10;99.90;;;1.53;100.00;99598.56;5094159;28;20028;-79
2021/12/25 06:04:27;;;;;;;11.50;8.13;;;1.00;99.90;;;1.68;100.00;99608.25;5092915;28;20391;-75
2021/12/25 06:06:52;;;;;;;12.52;8.20;;;1.10;99.90;;;1.53;100.00;99611.50;5094546;28;20058;-76
2021/12/25 06:09:18;;;;;;;12.73;8.05;;;1.00;99.90;;;1.56;100.00;99606.16;5093429;28;20070;-77
2021/12/25 06:11:47;;;;;;;10.75;8.50;;;1.00;99.90;;;1.54;100.00;99607.63;5095183;28;20240;-77
2021/12/25 06:14:20;;;;;;;11.60;8.95;;;1.00;99.90;;;1.48;100.00;99614.41;5094537;28;20042;-77
2021/12/25 06:16:49;;;;;;;12.68;8.93;;;1.00;99.90;;;1.54;100.00;99619.44;5096605;28;20035;-78
2021/12/25 06:19:18;;;;;;;10.30;8.00;;;1.00;99.90;;;1.51;100.00;99616.50;5095656;28;20061;-77
2021/12/25 06:21:47;;;;;;;10.63;7.82;;;1.00;99.90;;;1.33;100.00;99618.44;5093059;28;20028;-81
2021/12/25 06:24:14;;;;;;;11.25;7.35;;;0.90;99.90;;;1.30;100.00;99608.09;5092942;28;20028;-76
2021/12/25 06:26:40;;;;;;;12.00;8.98;;;0.90;99.90;;;1.40;100.00;99624.28;5073450;28;20017;-79
2021/12/25 06:29:19;;;;;;;11.75;8.98;;;0.90;99.90;;;1.42;100.00;99622.00;5073996;28;20473;-78
2021/12/25 06:31:47;;;;;;;9.65;7.68;;;0.90;99.90;;;1.51;100.00;99620.06;5074663;28;20024;-79
2021/12/25 06:34:13;;;;;;;9.88;8.13;;;0.90;99.90;;;1.43;100.00;99614.56;5074317;28;20518;-78
2021/12/25 06:36:39;;;;;;;13.15;8.80;;;0.90;99.90;;;1.36;100.00;99625.25;5075089;28;20033;-79
2021/12/25 06:39:07;;;;;;;11.15;8.05;;;0.80;99.90;;;1.43;100.00;99623.63;5075079;28;20127;-79
2021/12/25 06:41:39;;;;;;;14.43;8.65;;;0.80;99.90;;;1.44;100.00;99629.97;5078405;28;20027;-78
2021/12/25 06:44:05;;;;;;;11.23;8.30;;;0.80;99.90;;;1.36;100.00;99631.56;5077740;28;20498;-77
2021/12/25 06:46:32;;;;;;;11.90;8.38;;;0.80;99.90;;;1.33;100.00;99634.94;5078476;28;20036;-79
2021/12/25 06:48:58;;;;;;;9.95;8.50;;;0.80;99.90;;;1.36;100.00;99636.25;5076936;28;20017;-78
2021/12/25 06:51:24;;;;;;;14.07;9.15;;;0.80;99.90;;;1.27;100.00;99635.44;5077874;28;20036;-76
2021/12/25 06:53:50;;;;;;;14.57;9.07;;;0.80;99.90;;;1.23;100.00;99631.69;5076995;28;20029;-78
2021/12/25 06:56:16;;;;;;;12.48;8.73;;;0.80;99.90;;;1.11;100.00;99637.81;5078334;28;20464;-78
2021/12/25 06:58:45;;;;;;;12.40;8.95;;;0.70;99.90;;;1.10;100.00;99633.44;5077913;28;20337;-77
2021/12/25 07:01:11;;;;;;;13.40;9.95;;;0.70;99.90;;;1.20;100.00;99640.59;5076101;28;20063;-76
2021/12/25 07:03:36;;;;;;;14.90;9.40;;;0.70;99.90;;;1.25;100.00;99640.44;5077451;28;20040;-78
2021/12/25 07:06:02;;;;;;;11.88;9.23;;;0.70;99.90;;;1.18;100.00;99648.34;5076918;28;20422;-77
2021/12/25 07:08:28;;;;;;;14.48;9.45;;;0.70;99.90;;;1.12;100.00;99655.16;5077882;28;20054;-75
2021/12/25 07:10:57;;;;;;;13.73;9.25;;;0.70;99.90;;;1.22;100.00;99655.63;5076641;28;20029;-78
2021/12/25 07:13:23;;;;;;;13.32;9.85;;;0.70;99.90;;;1.11;100.00;99659.00;5075555;28;20032;-78
2021/12/25 07:15:49;;;;;;;14.43;10.15;;;0.70;99.90;;;1.03;100.00;99664.16;5076844;28;20048;-76
2021/12/25 07:18:15;;;;;;;14.93;10.02;;;0.60;99.90;;;1.17;100.00;99660.47;5075394;28;20040;-76
2021/12/25 07:20:42;;;;;;;16.35;10.82;;;0.60;99.90;;;1.07;100.00;99664.34;5076677;28;20033;-77
2021/12/25 07:23:12;;;;;;;13.55;8.75;;;0.60;99.90;;;1.14;100.00;99667.44;5075163;28;20028;-78
2021/12/25 07:25:37;;;;;;;16.90;9.98;;;0.60;99.90;;;1.13;100.00;99673.25;5075758;28;20036;-77
2021/12/25 07:28:04;;;;;;;13.27;9.57;;;0.60;99.90;;;1.06;100.00;99691.03;5078004;28;20033;-76
2021/12/25 07:30:30;;;;;;;18.88;11.32;;;0.60;99.90;;;1.13;100.00;99687.00;5077036;28;20033;-78
2021/12/25 07:33:03;;;;;;;14.65;9.73;;;0.60;99.90;;;1.16;100.00;99687.16;5075756;28;20035;-77
2021/12/25 07:35:29;;;;;;;13.73;9.35;;;0.60;99.90;;;1.10;100.00;99680.19;5076593;28;20034;-76
2021/12/25 07:37:56;;;;;;;14.70;9.35;;;0.60;99.90;;;0.93;100.00;99686.44;5077409;28;20033;-78
2021/12/25 07:40:22;;;;;;;14.55;8.82;;;0.60;99.90;;;1.11;100.00;99681.00;5077828;28;20031;-78
2021/12/25 07:42:48;;;;;;;14.55;9.35;;;0.60;99.90;;;1.21;100.00;99683.47;5077525;28;20033;-78
2021/12/25 07:45:15;;;;;;;11.25;8.02;;;0.60;99.90;;;1.12;100.00;99688.97;5077912;28;20029;-75
2021/12/25 07:47:47;;;;;;;12.93;8.60;;;0.60;99.90;;;1.15;100.00;99687.50;5077515;28;20048;-76
2021/12/25 07:50:13;;;;;;;11.95;8.32;;;0.60;99.90;;;1.12;100.00;99702.72;5076884;28;20021;-76
2021/12/25 07:52:41;;;;;;;11.63;7.57;;;0.60;99.90;;;1.12;100.00;99704.63;5075017;28;20495;-77
2021/12/25 07:55:10;;;;;;;11.63;7.57;;;0.60;99.90;;;1.02;100.00;99706.56;5084246;22;20072;-78
2021/12/25 07:57:37;;;;;;;14.85;7.22;;;0.50;99.90;;;0.89;100.00;99712.97;5058331;28;20044;-78
2021/12/25 08:00:11;;;;;;;11.38;7.47;;;0.50;99.90;;;0.91;100.00;99709.88;5057897;28;20029;-78
2021/12/25 08:02:39;;;;;;;9.17;6.37;;;0.50;99.90;;;0.94;100.00;99721.06;5057583;28;20032;-79
2021/12/25 08:05:05;;;;;;;12.70;6.85;;;0.50;99.90;;;0.97;100.00;99719.59;5057663;28;20267;-78
2021/12/25 08:07:32;;;;;;;11.18;6.80;;;0.50;99.90;;;0.96;100.00;99720.75;5057291;28;20025;-78
2021/12/25 08:10:11;;;;;;;9.60;6.90;;;0.50;99.90;;;1.01;100.00;99724.16;5057909;28;20032;-78
2021/12/25 08:12:48;;;;;;;10.85;6.97;;;0.50;99.90;;;1.06;100.00;99721.25;5056253;28;20387;-77
2021/12/25 08:15:19;;;;;;;8.40;6.10;;;0.50;99.90;;;1.07;100.00;99727.59;5057613;28;20479;-78
2021/12/25 08:17:46;;;;;;;7.72;5.70;;;0.50;99.90;;;0.97;100.00;99733.34;5057182;28;20029;-77
2021/12/25 08:20:16;;;;;;;9.65;6.07;;;0.50;99.90;;;0.95;100.00;99735.63;5056713;28;20028;-76
2021/12/25 08:22:46;;;;;;;7.72;5.07;;;0.50;99.90;;;0.95;100.00;99732.88;5056810;28;20029;-77
2021/12/25 08:25:22;;;;;;;6.57;5.10;;;0.50;99.90;;;0.99;100.00;99731.13;5055120;28;20438;-77
2021/12/25 08:27:52;;;;;;;9.95;4.93;;;0.50;99.90;;;0.99;100.00;99734.69;5056206;28;20121;-76
2021/12/25 08:30:23;;;;;;;9.63;5.32;;;0.50;99.90;;;0.90;100.00;99739.31;5038642;28;20381;-77
2021/12/25 08:32:55;;;;;;;6.68;5.22;;;0.40;99.90;;;0.91;100.00;99742.88;5056313;28;20477;-77
2021/12/25 08:35:26;;;;;;;7.82;4.93;;;0.40;99.90;;;0.77;100.00;99742.97;5056589;28;20025;-79
2021/12/25 08:37:52;;;;;;;6.25;4.68;;;0.40;99.90;;;0.86;100.00;99748.53;5038523;28;20021;-77
2021/12/25 08:40:19;;;;;;;10.60;5.03;;;0.40;99.90;;;0.92;100.00;99742.56;5037211;28;20127;-78
2021/12/25 08:42:48;;;;;;;6.53;4.50;;;0.40;99.90;;;0.94;100.00;99745.81;5056532;28;20682;-76
2021/12/25 08:48:01;;;;;;;5.78;4.00;;;0.40;99.90;;;0.74;100.00;99754.59;5055829;28;20494;-76
2021/12/25 08:50:28;;;;;;;7.05;4.13;;;0.40;99.90;;;0.82;100.00;99750.28;5057464;28;20033;-78
2021/12/25 08:52:54;;;;;;;6.07;4.00;;;0.40;99.90;;;1.01;100.00;99761.84;5057695;28;20044;-80
2021/12/25 08:55:25;;;;;;;7.18;3.95;;;0.40;99.90;;;0.98;100.00;99755.06;5057175;28;20547;-80
2021/12/25 08:57:54;;;;;;;7.05;3.50;;;0.50;99.90;;;0.89;100.00;99762.44;5058039;28;20111;-78
2021/12/25 09:00:21;;;;;;;6.00;3.75;;;0.50;99.90;;;0.83;100.00;99752.72;5055218;28;20055;-79
2021/12/25 09:02:48;;;;;;;4.45;3.38;;;0.50;99.90;;;0.91;100.00;99764.88;5038627;28;20025;-79
2021/12/25 09:05:17;;;;;;;8.55;3.50;;;0.40;99.90;;;0.83;100.00;99768.41;5039717;28;20025;-77
2021/12/25 09:07:44;;;;;;;3.95;3.13;;;0.40;99.90;;;0.66;100.00;99769.09;5042263;28;20388;-79
2021/12/25 09:10:10;;;;;;;6.35;3.33;;;0.40;99.90;;;0.88;100.00;99769.06;5061652;28;20025;-77
2021/12/25 09:12:41;;;;;;;6.13;3.35;;;0.40;99.90;;;0.96;100.00;99773.78;5057822;28;20226;-79
2021/12/25 09:15:10;;;;;;;6.13;3.00;;;0.40;99.90;;;0.89;100.00;99775.38;5040730;28;20088;-80
2021/12/25 09:17:37;;;;;;;7.57;3.25;;;0.40;99.90;;;1.00;100.00;99779.47;5058365;28;20040;-78
2021/12/25 09:20:07;;;;;;;5.28;3.28;;;0.40;99.90;;;1.14;100.00;99790.38;5040868;28;20029;-79
2021/12/25 09:22:33;;;;;;;3.45;2.30;;;0.50;99.90;;;0.82;100.00;99791.50;5060224;28;20052;-78
2021/12/25 09:24:59;;;;;;;4.45;2.80;;;0.40;99.90;;;0.75;100.00;99789.19;5039962;28;20037;-78
2021/12/25 09:27:25;;;;;;;6.80;2.58;;;0.40;99.90;;;0.69;100.00;99792.38;5054557;28;20034;-78
2021/12/25 09:29:51;;;;;;;4.03;2.63;;;0.30;99.90;;;0.68;100.00;99786.06;5051537;28;20342;-77
2021/12/25 09:32:17;;;;;;;4.07;2.60;;;0.30;99.90;;;0.73;100.00;99799.72;5018530;28;20029;-77
2021/12/25 09:34:43;;;;;;;3.95;2.42;;;0.30;99.90;;;0.83;100.00;99796.69;5037662;28;20087;-78
2021/12/25 09:37:13;;;;;;;3.70;2.47;;;0.30;99.90;;;0.77;100.00;99806.19;5038038;28;20065;-77
2021/12/25 09:39:40;;;;;;;6.30;2.70;;;0.30;99.90;;;0.66;100.00;99795.75;5040133;28;20080;-79
2021/12/25 09:42:07;;;;;;;6.53;2.47;;;0.20;99.90;;;0.62;99.66;99808.50;5042714;28;20032;-79
2021/12/25 09:44:34;;;;;;;3.72;2.20;;;0.20;99.90;;;0.66;99.85;99804.81;5041077;28;20033;-76
2021/12/25 09:47:01;;;;;;;4.70;2.35;;;0.20;99.90;;;0.70;99.78;99810.50;5038170;28;20571;-76
2021/12/25 09:49:26;;;;;;;2.88;1.90;;;0.20;99.90;;;0.66;99.24;99806.75;5045297;28;20433;-77
2021/12/25 09:51:52;;;;;;;3.88;2.00;;;0.20;99.90;;;0.58;99.26;99813.03;5021501;28;20038;-75
2021/12/25 09:54:18;;;;;;;4.07;2.28;;;0.10;99.90;;;0.52;98.71;99813.13;5037656;28;20030;-78
2021/12/25 09:56:51;;;;;;;2.75;2.13;;;0.10;99.90;;;0.54;99.10;99821.06;5038882;28;20025;-77
2021/12/25 09:59:17;;;;;;;3.53;2.00;;;0.10;99.90;;;0.33;98.80;99820.72;5039223;28;20027;-76
2021/12/25 10:01:55;;;;;;;4.20;2.38;;;0.00;99.90;;;0.44;99.78;99827.63;5039735;28;20040;-76
2021/12/25 10:04:45;;;;;;;3.95;1.95;;;0.00;99.90;;;0.48;98.75;99827.81;5038618;28;20080;-76
2021/12/25 10:07:31;;;;;;;6.85;2.17;;;0.00;99.90;;;0.63;98.38;99827.44;5037049;28;20091;-76
2021/12/25 10:10:16;;;;;;;3.00;2.03;;;0.10;99.90;;;0.60;97.42;99819.00;5036493;28;20037;-76
2021/12/25 10:12:51;;;;;;;4.60;2.20;;;0.10;99.90;;;0.68;97.33;99829.22;5020929;28;20030;-76
2021/12/25 10:15:28;;;;;;;3.15;1.92;;;0.20;99.90;;;0.64;96.83;99829.06;5042458;28;20018;-76
2021/12/25 10:17:59;;;;;;;4.07;2.20;;;0.20;99.90;;;0.73;96.99;99840.13;5043470;28;20038;-75
2021/12/25 10:20:33;;;;;;;2.30;1.52;;;0.20;99.90;;;0.54;96.69;99837.56;5043044;28;20526;-77
2021/12/25 10:23:11;;;;;;;3.08;2.10;;;0.20;99.90;;;0.34;97.54;99830.59;5025848;28;20392;-76
2021/12/25 10:25:57;;;;;;;3.70;1.85;;;0.00;99.90;;;0.35;97.82;99823.19;5053031;28;20101;-79
2021/12/25 10:28:38;;;;;;;3.60;1.90;;;-0.10;99.90;;;0.34;98.18;99814.13;5060758;28;20029;-76
2021/12/25 10:31:16;;;;;;;2.95;1.88;;;-0.10;99.90;;;0.42;97.74;99821.59;5059068;28;20036;-77
2021/12/25 10:33:51;;;;;;;3.53;2.30;;;-0.10;99.90;;;0.29;98.16;99816.19;5061678;28;20025;-78
2021/12/25 10:36:36;;;;;;;4.15;2.47;;;-0.10;99.90;;;0.17;97.92;99822.22;5046795;28;20033;-77
2021/12/25 10:39:27;;;;;;;3.05;2.08;;;-0.20;99.90;;;0.28;97.61;99826.34;5063356;28;20033;-77
2021/12/25 10:42:11;;;;;;;3.78;2.17;;;-0.20;99.90;;;0.26;97.76;99823.09;5051048;28;20045;-77
2021/12/25 10:44:54;;;;;;;3.13;2.10;;;-0.20;99.90;;;0.21;98.00;99825.16;5061787;28;20028;-76
2021/12/25 10:47:31;;;;;;;3.28;2.10;;;-0.20;99.90;;;0.09;98.11;99831.19;5061047;28;20021;-77
2021/12/25 10:50:18;;;;;;;4.07;2.42;;;-0.30;99.90;;;0.17;98.05;99824.13;5044102;28;20032;-76
2021/12/25 10:52:47;;;;;;;6.80;2.60;;;-0.30;99.90;;;0.16;98.00;99826.06;5061222;28;20025;-76
2021/12/25 10:55:31;;;;;;;3.47;2.22;;;-0.20;99.90;;;0.18;97.74;99828.50;5060472;28;20037;-76
2021/12/25 10:58:00;;;;;;;5.55;2.53;;;-0.30;99.90;;;0.16;97.38;99830.78;5043425;28;20056;-79
2021/12/25 11:00:34;;;;;;;3.30;2.53;;;-0.20;99.90;;;0.25;97.51;99831.66;5059627;28;20028;-77
2021/12/25 11:03:10;;;;;;;4.43;2.30;;;-0.20;99.90;;;0.25;97.04;99834.41;5059610;28;20106;-78
2021/12/25 11:05:47;;;;;;;3.28;2.35;;;-0.20;99.90;;;0.00;97.78;99822.06;5062810;28;20032;-79
2021/12/25 11:08:22;;;;;;;5.63;2.25;;;-0.20;99.90;;;0.12;97.16;99827.81;5061770;28;20037;-80
2021/12/25 11:11:08;;;;;;;4.30;2.45;;;-0.20;99.90;;;0.14;96.36;99822.81;5042450;28;20040;-78
2021/12/25 11:13:50;;;;;;;4.93;2.85;;;-0.20;99.90;;;0.20;97.01;99827.06;5062205;28;20037;-76
2021/12/25 11:16:31;;;;;;;3.67;2.60;;;-0.20;99.90;;;0.18;96.78;99834.81;5061227;28;20078;-76
2021/12/25 11:19:17;;;;;;;5.82;2.67;;;-0.20;99.90;;;0.33;97.00;99823.47;5062527;28;20182;-78
2021/12/25 11:21:49;;;;;;;4.07;2.60;;;-0.10;99.90;;;0.33;95.94;99833.66;5064561;28;20484;-79
2021/12/25 11:24:18;;;;;;;2.33;1.80;;;-0.10;99.90;;;0.29;95.46;99827.97;5063045;28;20078;-77
2021/12/25 11:27:08;;;;;;;3.05;2.10;;;-0.10;99.90;;;0.33;94.81;99819.91;5062419;28;20025;-79
2021/12/25 11:29:38;;;;;;;2.70;1.90;;;0.00;99.90;;;0.45;93.82;99822.94;5046697;28;20021;-77
2021/12/25 11:32:09;;;;;;;2.97;1.92;;;0.00;99.90;;;0.51;94.58;99816.19;5063619;28;20040;-78
2021/12/25 11:34:36;;;;;;;2.72;1.80;;;0.10;99.90;;;0.49;92.53;99827.50;5065042;28;20036;-79
2021/12/25 11:37:03;;;;;;;3.17;1.63;;;0.10;99.90;;;0.59;91.61;99817.38;5062228;28;20518;-78
2021/12/25 11:39:34;;;;;;;4.35;1.80;;;0.20;99.90;;;0.67;90.92;99825.69;5060101;28;20088;-77
2021/12/25 11:42:10;;;;;;;4.43;1.85;;;0.30;99.90;;;0.77;91.03;99827.38;5060196;28;20453;-76
2021/12/25 11:44:45;;;;;;;4.70;1.55;;;0.30;99.90;;;0.87;90.26;99827.09;5056988;28;20025;-77